sensor_id;sensor_type;location;lat;lon;timestamp;temperature;humidity
66928;DHT22;59882;45.624;11.698;2023-03-23T00:01:06;13.40;63.80
66928;DHT22;59882;45.624;11.698;2023-03-23T00:03:35;13.40;63.30
66928;DHT22;59882;45.624;11.698;2023-03-23T00:06:01;13.30;63.90
66928;DHT22;59882;45.624;11.698;2023-03-23T00:08:31;13.30;64.10
66928;DHT22;59882;45.624;11.698;2023-03-23T00:10:57;13.30;64.70
66928;DHT22;59882;45.624;11.698;2023-03-23T00:13:24;13.30;64.40
66928;DHT22;59882;45.624;11.698;2023-03-23T00:15:49;13.20;63.90
66928;DHT22;59882;45.624;11.698;2023-03-23T00:18:18;13.30;63.40
66928;DHT22;59882;45.624;11.698;2023-03-23T00:20:51;13.30;63.50
66928;DHT22;59882;45.624;11.698;2023-03-23T00:23:18;13.40;63.50
66928;DHT22;59882;45.624;11.698;2023-03-23T00:25:55;13.40;63.60
66928;DHT22;59882;45.624;11.698;2023-03-23T00:28:25;13.40;64.50
66928;DHT22;59882;45.624;11.698;2023-03-23T00:31:06;13.50;63.20
66928;DHT22;59882;45.624;11.698;2023-03-23T00:33:34;13.50;64.30
66928;DHT22;59882;45.624;11.698;2023-03-23T00:36:13;13.40;63.80
66928;DHT22;59882;45.624;11.698;2023-03-23T00:38:40;13.20;63.70
66928;DHT22;59882;45.624;11.698;2023-03-23T00:41:07;13.20;63.30
66928;DHT22;59882;45.624;11.698;2023-03-23T00:43:33;13.20;63.20
66928;DHT22;59882;45.624;11.698;2023-03-23T00:46:02;13.20;63.30
66928;DHT22;59882;45.624;11.698;2023-03-23T00:48:34;13.20;63.20
66928;DHT22;59882;45.624;11.698;2023-03-23T00:51:01;13.30;64.10
66928;DHT22;59882;45.624;11.698;2023-03-23T00:53:32;13.30;63.50
66928;DHT22;59882;45.624;11.698;2023-03-23T00:55:57;13.30;64.30
66928;DHT22;59882;45.624;11.698;2023-03-23T00:58:23;13.20;64.20
66928;DHT22;59882;45.624;11.698;2023-03-23T01:00:48;13.10;64.10
66928;DHT22;59882;45.624;11.698;2023-03-23T01:03:14;13.00;64.00
66928;DHT22;59882;45.624;11.698;2023-03-23T01:05:44;12.90;64.50
66928;DHT22;59882;45.624;11.698;2023-03-23T01:08:12;12.80;65.40
66928;DHT22;59882;45.624;11.698;2023-03-23T01:10:39;12.70;65.20
66928;DHT22;59882;45.624;11.698;2023-03-23T01:13:05;12.60;66.00
66928;DHT22;59882;45.624;11.698;2023-03-23T01:15:31;12.50;65.70
66928;DHT22;59882;45.624;11.698;2023-03-23T01:17:57;12.50;65.40
66928;DHT22;59882;45.624;11.698;2023-03-23T01:20:24;12.50;65.20
66928;DHT22;59882;45.624;11.698;2023-03-23T01:22:52;12.60;65.20
66928;DHT22;59882;45.624;11.698;2023-03-23T01:25:18;12.70;65.00
66928;DHT22;59882;45.624;11.698;2023-03-23T01:27:44;12.70;65.30
66928;DHT22;59882;45.624;11.698;2023-03-23T01:30:12;12.80;65.60
66928;DHT22;59882;45.624;11.698;2023-03-23T01:32:38;12.70;65.10
66928;DHT22;59882;45.624;11.698;2023-03-23T01:35:04;12.60;64.70
66928;DHT22;59882;45.624;11.698;2023-03-23T01:37:30;12.60;65.00
66928;DHT22;59882;45.624;11.698;2023-03-23T01:39:56;12.60;65.50
66928;DHT22;59882;45.624;11.698;2023-03-23T01:42:30;12.50;65.60
66928;DHT22;59882;45.624;11.698;2023-03-23T01:45:31;12.40;65.70
66928;DHT22;59882;45.624;11.698;2023-03-23T01:48:09;12.40;65.90
66928;DHT22;59882;45.624;11.698;2023-03-23T01:50:47;12.30;67.00
66928;DHT22;59882;45.624;11.698;2023-03-23T01:53:15;12.30;67.80
66928;DHT22;59882;45.624;11.698;2023-03-23T01:55:43;12.30;67.90
66928;DHT22;59882;45.624;11.698;2023-03-23T01:58:10;12.20;67.80
66928;DHT22;59882;45.624;11.698;2023-03-23T02:00:38;12.20;68.40
66928;DHT22;59882;45.624;11.698;2023-03-23T02:03:06;12.20;67.30
66928;DHT22;59882;45.624;11.698;2023-03-23T02:05:37;12.30;68.20
66928;DHT22;59882;45.624;11.698;2023-03-23T02:08:04;12.30;67.90
66928;DHT22;59882;45.624;11.698;2023-03-23T02:10:32;12.30;66.90
66928;DHT22;59882;45.624;11.698;2023-03-23T02:13:03;12.40;67.00
66928;DHT22;59882;45.624;11.698;2023-03-23T02:18:28;12.40;66.40
66928;DHT22;59882;45.624;11.698;2023-03-23T02:21:13;12.40;66.50
66928;DHT22;59882;45.624;11.698;2023-03-23T02:26:57;12.40;66.50
66928;DHT22;59882;45.624;11.698;2023-03-23T02:29:29;12.30;66.60
66928;DHT22;59882;45.624;11.698;2023-03-23T02:32:11;12.20;66.00
66928;DHT22;59882;45.624;11.698;2023-03-23T02:34:47;12.20;66.70
66928;DHT22;59882;45.624;11.698;2023-03-23T02:37:36;12.10;66.20
66928;DHT22;59882;45.624;11.698;2023-03-23T02:40:12;12.10;66.70
66928;DHT22;59882;45.624;11.698;2023-03-23T02:42:43;12.10;66.00
66928;DHT22;59882;45.624;11.698;2023-03-23T02:45:12;12.10;66.90
66928;DHT22;59882;45.624;11.698;2023-03-23T02:47:40;12.00;66.70
66928;DHT22;59882;45.624;11.698;2023-03-23T02:50:10;12.00;67.10
66928;DHT22;59882;45.624;11.698;2023-03-23T02:52:39;11.90;67.30
66928;DHT22;59882;45.624;11.698;2023-03-23T02:55:07;11.90;67.80
66928;DHT22;59882;45.624;11.698;2023-03-23T02:57:33;11.80;66.90
66928;DHT22;59882;45.624;11.698;2023-03-23T03:00:00;11.80;66.60
66928;DHT22;59882;45.624;11.698;2023-03-23T03:02:32;11.80;67.40
66928;DHT22;59882;45.624;11.698;2023-03-23T03:08:08;11.60;67.20
66928;DHT22;59882;45.624;11.698;2023-03-23T03:10:46;11.60;67.60
66928;DHT22;59882;45.624;11.698;2023-03-23T03:19:10;11.60;67.90
66928;DHT22;59882;45.624;11.698;2023-03-23T03:21:42;11.50;68.50
66928;DHT22;59882;45.624;11.698;2023-03-23T03:24:11;11.50;67.70
66928;DHT22;59882;45.624;11.698;2023-03-23T03:26:46;11.50;68.60
66928;DHT22;59882;45.624;11.698;2023-03-23T03:29:14;11.60;68.70
66928;DHT22;59882;45.624;11.698;2023-03-23T03:31:44;11.60;68.10
66928;DHT22;59882;45.624;11.698;2023-03-23T03:34:11;11.60;68.30
66928;DHT22;59882;45.624;11.698;2023-03-23T03:36:38;11.60;68.00
66928;DHT22;59882;45.624;11.698;2023-03-23T03:39:07;11.60;67.70
66928;DHT22;59882;45.624;11.698;2023-03-23T03:41:37;11.60;68.00
66928;DHT22;59882;45.624;11.698;2023-03-23T03:44:04;11.60;67.30
66928;DHT22;59882;45.624;11.698;2023-03-23T03:46:30;11.60;68.10
66928;DHT22;59882;45.624;11.698;2023-03-23T03:48:57;11.70;68.00
66928;DHT22;59882;45.624;11.698;2023-03-23T03:51:24;11.60;67.50
66928;DHT22;59882;45.624;11.698;2023-03-23T03:53:51;11.60;67.70
66928;DHT22;59882;45.624;11.698;2023-03-23T03:56:16;11.70;67.70
66928;DHT22;59882;45.624;11.698;2023-03-23T03:58:42;11.70;67.20
66928;DHT22;59882;45.624;11.698;2023-03-23T04:01:09;11.80;67.30
66928;DHT22;59882;45.624;11.698;2023-03-23T04:03:39;11.80;67.00
66928;DHT22;59882;45.624;11.698;2023-03-23T04:06:05;11.80;66.90
66928;DHT22;59882;45.624;11.698;2023-03-23T04:08:30;11.80;66.90
66928;DHT22;59882;45.624;11.698;2023-03-23T04:10:57;11.80;67.60
66928;DHT22;59882;45.624;11.698;2023-03-23T04:13:23;11.80;67.30
66928;DHT22;59882;45.624;11.698;2023-03-23T04:15:48;11.80;67.10
66928;DHT22;59882;45.624;11.698;2023-03-23T04:18:15;11.80;67.00
66928;DHT22;59882;45.624;11.698;2023-03-23T04:20:46;11.80;67.10
66928;DHT22;59882;45.624;11.698;2023-03-23T04:23:16;11.80;67.10
66928;DHT22;59882;45.624;11.698;2023-03-23T04:25:50;11.80;66.90
66928;DHT22;59882;45.624;11.698;2023-03-23T04:28:19;11.80;67.10
66928;DHT22;59882;45.624;11.698;2023-03-23T04:30:50;11.70;67.00
66928;DHT22;59882;45.624;11.698;2023-03-23T04:33:18;11.60;67.30
66928;DHT22;59882;45.624;11.698;2023-03-23T04:35:45;11.60;67.30
66928;DHT22;59882;45.624;11.698;2023-03-23T04:38:16;11.50;67.40
66928;DHT22;59882;45.624;11.698;2023-03-23T04:40:43;11.40;67.70
66928;DHT22;59882;45.624;11.698;2023-03-23T04:43:09;11.40;68.10
66928;DHT22;59882;45.624;11.698;2023-03-23T04:45:38;11.30;68.40
66928;DHT22;59882;45.624;11.698;2023-03-23T04:48:07;11.30;68.50
66928;DHT22;59882;45.624;11.698;2023-03-23T04:50:33;11.20;68.70
66928;DHT22;59882;45.624;11.698;2023-03-23T04:53:00;11.10;68.70
66928;DHT22;59882;45.624;11.698;2023-03-23T04:55:31;11.00;69.20
66928;DHT22;59882;45.624;11.698;2023-03-23T04:57:57;11.10;69.10
66928;DHT22;59882;45.624;11.698;2023-03-23T05:00:26;11.00;68.70
66928;DHT22;59882;45.624;11.698;2023-03-23T05:02:52;11.10;68.40
66928;DHT22;59882;45.624;11.698;2023-03-23T05:05:19;11.10;69.10
66928;DHT22;59882;45.624;11.698;2023-03-23T05:07:46;11.10;68.90
66928;DHT22;59882;45.624;11.698;2023-03-23T05:10:12;11.10;68.30
66928;DHT22;59882;45.624;11.698;2023-03-23T05:12:39;11.20;68.30
66928;DHT22;59882;45.624;11.698;2023-03-23T05:15:05;11.30;68.90
66928;DHT22;59882;45.624;11.698;2023-03-23T05:17:32;11.30;69.00
66928;DHT22;59882;45.624;11.698;2023-03-23T05:19:59;11.30;69.10
66928;DHT22;59882;45.624;11.698;2023-03-23T05:22:28;11.20;69.30
66928;DHT22;59882;45.624;11.698;2023-03-23T05:24:58;11.10;69.40
66928;DHT22;59882;45.624;11.698;2023-03-23T05:27:24;11.10;68.70
66928;DHT22;59882;45.624;11.698;2023-03-23T05:29:56;11.10;69.00
66928;DHT22;59882;45.624;11.698;2023-03-23T05:32:26;11.20;69.40
66928;DHT22;59882;45.624;11.698;2023-03-23T05:34:58;11.20;69.20
66928;DHT22;59882;45.624;11.698;2023-03-23T05:37:25;11.20;68.90
66928;DHT22;59882;45.624;11.698;2023-03-23T05:39:52;11.10;69.40
66928;DHT22;59882;45.624;11.698;2023-03-23T05:42:21;11.10;69.10
66928;DHT22;59882;45.624;11.698;2023-03-23T05:44:48;11.20;69.00
66928;DHT22;59882;45.624;11.698;2023-03-23T05:47:14;11.20;68.80
66928;DHT22;59882;45.624;11.698;2023-03-23T05:49:39;11.20;68.70
66928;DHT22;59882;45.624;11.698;2023-03-23T05:52:05;11.20;68.80
66928;DHT22;59882;45.624;11.698;2023-03-23T05:54:31;11.30;69.20
66928;DHT22;59882;45.624;11.698;2023-03-23T05:56:56;11.30;69.10
66928;DHT22;59882;45.624;11.698;2023-03-23T05:59:22;11.20;69.00
66928;DHT22;59882;45.624;11.698;2023-03-23T06:01:48;11.20;69.20
66928;DHT22;59882;45.624;11.698;2023-03-23T06:04:15;11.10;69.40
66928;DHT22;59882;45.624;11.698;2023-03-23T06:06:42;11.10;69.10
66928;DHT22;59882;45.624;11.698;2023-03-23T06:09:09;11.10;69.60
66928;DHT22;59882;45.624;11.698;2023-03-23T06:11:35;11.10;69.50
66928;DHT22;59882;45.624;11.698;2023-03-23T06:14:00;11.10;69.20
66928;DHT22;59882;45.624;11.698;2023-03-23T06:16:27;11.10;69.70
66928;DHT22;59882;45.624;11.698;2023-03-23T06:18:52;11.00;69.70
66928;DHT22;59882;45.624;11.698;2023-03-23T06:21:18;11.00;70.20
66928;DHT22;59882;45.624;11.698;2023-03-23T06:23:45;11.00;70.10
66928;DHT22;59882;45.624;11.698;2023-03-23T06:26:13;11.00;70.40
66928;DHT22;59882;45.624;11.698;2023-03-23T06:28:41;11.00;70.50
66928;DHT22;59882;45.624;11.698;2023-03-23T06:31:07;11.00;70.70
66928;DHT22;59882;45.624;11.698;2023-03-23T06:33:34;11.10;70.70
66928;DHT22;59882;45.624;11.698;2023-03-23T06:36:01;11.10;70.30
66928;DHT22;59882;45.624;11.698;2023-03-23T06:38:26;11.20;70.40
66928;DHT22;59882;45.624;11.698;2023-03-23T06:40:53;11.20;70.40
66928;DHT22;59882;45.624;11.698;2023-03-23T06:43:19;11.30;70.80
66928;DHT22;59882;45.624;11.698;2023-03-23T06:45:45;11.30;70.60
66928;DHT22;59882;45.624;11.698;2023-03-23T06:48:10;11.30;71.00
66928;DHT22;59882;45.624;11.698;2023-03-23T06:50:37;11.40;71.20
66928;DHT22;59882;45.624;11.698;2023-03-23T06:53:03;11.40;71.50
66928;DHT22;59882;45.624;11.698;2023-03-23T06:55:29;11.50;71.30
66928;DHT22;59882;45.624;11.698;2023-03-23T06:57:55;11.60;70.80
66928;DHT22;59882;45.624;11.698;2023-03-23T07:00:20;11.60;71.00
66928;DHT22;59882;45.624;11.698;2023-03-23T07:02:46;11.70;71.00
66928;DHT22;59882;45.624;11.698;2023-03-23T07:05:12;11.80;71.40
66928;DHT22;59882;45.624;11.698;2023-03-23T07:07:39;11.90;70.80
66928;DHT22;59882;45.624;11.698;2023-03-23T07:10:07;11.90;70.80
66928;DHT22;59882;45.624;11.698;2023-03-23T07:12:35;12.10;70.90
66928;DHT22;59882;45.624;11.698;2023-03-23T07:15:02;12.20;70.70
66928;DHT22;59882;45.624;11.698;2023-03-23T07:17:28;12.30;70.20
66928;DHT22;59882;45.624;11.698;2023-03-23T07:19:54;12.40;70.80
66928;DHT22;59882;45.624;11.698;2023-03-23T07:22:19;12.50;70.70
66928;DHT22;59882;45.624;11.698;2023-03-23T07:24:45;12.60;70.80
66928;DHT22;59882;45.624;11.698;2023-03-23T07:27:11;12.70;70.60
66928;DHT22;59882;45.624;11.698;2023-03-23T07:29:37;12.80;71.30
66928;DHT22;59882;45.624;11.698;2023-03-23T07:32:04;12.90;71.00
66928;DHT22;59882;45.624;11.698;2023-03-23T07:34:31;13.00;70.20
66928;DHT22;59882;45.624;11.698;2023-03-23T07:36:57;13.10;70.00
66928;DHT22;59882;45.624;11.698;2023-03-23T07:39:23;13.20;70.20
66928;DHT22;59882;45.624;11.698;2023-03-23T07:41:49;13.30;70.30
66928;DHT22;59882;45.624;11.698;2023-03-23T07:44:15;13.40;70.20
66928;DHT22;59882;45.624;11.698;2023-03-23T07:46:41;13.50;70.70
66928;DHT22;59882;45.624;11.698;2023-03-23T07:49:08;13.60;70.80
66928;DHT22;59882;45.624;11.698;2023-03-23T07:51:34;13.70;70.30
66928;DHT22;59882;45.624;11.698;2023-03-23T07:54:00;13.80;70.20
66928;DHT22;59882;45.624;11.698;2023-03-23T07:56:28;13.80;69.80
66928;DHT22;59882;45.624;11.698;2023-03-23T07:58:54;13.90;69.70
66928;DHT22;59882;45.624;11.698;2023-03-23T08:01:20;13.90;69.50
66928;DHT22;59882;45.624;11.698;2023-03-23T08:03:46;14.00;69.20
66928;DHT22;59882;45.624;11.698;2023-03-23T08:06:12;14.00;69.10
66928;DHT22;59882;45.624;11.698;2023-03-23T08:08:38;14.10;69.00
66928;DHT22;59882;45.624;11.698;2023-03-23T08:11:05;14.20;69.10
66928;DHT22;59882;45.624;11.698;2023-03-23T08:13:32;14.30;69.00
66928;DHT22;59882;45.624;11.698;2023-03-23T08:15:59;14.30;69.00
66928;DHT22;59882;45.624;11.698;2023-03-23T08:18:25;14.40;68.90
66928;DHT22;59882;45.624;11.698;2023-03-23T08:20:51;14.50;68.60
66928;DHT22;59882;45.624;11.698;2023-03-23T08:23:19;14.50;68.90
66928;DHT22;59882;45.624;11.698;2023-03-23T08:25:45;14.60;68.40
66928;DHT22;59882;45.624;11.698;2023-03-23T08:28:11;14.80;68.20
66928;DHT22;59882;45.624;11.698;2023-03-23T08:30:39;14.90;68.00
66928;DHT22;59882;45.624;11.698;2023-03-23T08:33:05;14.90;67.80
66928;DHT22;59882;45.624;11.698;2023-03-23T08:35:31;14.90;67.50
66928;DHT22;59882;45.624;11.698;2023-03-23T08:37:57;14.90;67.20
66928;DHT22;59882;45.624;11.698;2023-03-23T08:40:23;15.00;67.10
66928;DHT22;59882;45.624;11.698;2023-03-23T08:42:50;15.00;66.80
66928;DHT22;59882;45.624;11.698;2023-03-23T08:45:20;15.00;66.50
66928;DHT22;59882;45.624;11.698;2023-03-23T08:47:46;15.00;66.60
66928;DHT22;59882;45.624;11.698;2023-03-23T08:50:19;15.00;66.20
66928;DHT22;59882;45.624;11.698;2023-03-23T08:52:45;15.00;66.10
66928;DHT22;59882;45.624;11.698;2023-03-23T08:55:11;15.10;66.00
66928;DHT22;59882;45.624;11.698;2023-03-23T08:57:38;15.10;66.00
66928;DHT22;59882;45.624;11.698;2023-03-23T09:00:06;15.10;65.90
66928;DHT22;59882;45.624;11.698;2023-03-23T09:02:44;15.20;65.60
66928;DHT22;59882;45.624;11.698;2023-03-23T09:05:10;15.30;65.80
66928;DHT22;59882;45.624;11.698;2023-03-23T09:07:40;15.40;65.80
66928;DHT22;59882;45.624;11.698;2023-03-23T09:10:07;15.50;65.40
66928;DHT22;59882;45.624;11.698;2023-03-23T09:12:33;15.60;65.00
66928;DHT22;59882;45.624;11.698;2023-03-23T09:14:58;15.80;64.70
66928;DHT22;59882;45.624;11.698;2023-03-23T09:17:24;15.90;64.40
66928;DHT22;59882;45.624;11.698;2023-03-23T09:19:50;16.00;64.50
66928;DHT22;59882;45.624;11.698;2023-03-23T09:22:16;16.10;63.70
66928;DHT22;59882;45.624;11.698;2023-03-23T09:24:45;16.10;63.50
66928;DHT22;59882;45.624;11.698;2023-03-23T09:27:12;16.20;62.80
66928;DHT22;59882;45.624;11.698;2023-03-23T09:29:37;16.20;62.70
66928;DHT22;59882;45.624;11.698;2023-03-23T09:32:03;16.30;62.10
66928;DHT22;59882;45.624;11.698;2023-03-23T09:34:29;16.30;61.90
66928;DHT22;59882;45.624;11.698;2023-03-23T09:36:55;16.30;61.90
66928;DHT22;59882;45.624;11.698;2023-03-23T09:39:20;16.40;61.80
66928;DHT22;59882;45.624;11.698;2023-03-23T09:49:46;16.70;61.00
66928;DHT22;59882;45.624;11.698;2023-03-23T09:52:16;16.80;59.60
66928;DHT22;59882;45.624;11.698;2023-03-23T09:54:50;16.80;60.20
66928;DHT22;59882;45.624;11.698;2023-03-23T09:57:34;16.90;59.90
66928;DHT22;59882;45.624;11.698;2023-03-23T10:00:08;16.90;59.90
66928;DHT22;59882;45.624;11.698;2023-03-23T10:05:41;17.10;59.40
66928;DHT22;59882;45.624;11.698;2023-03-23T10:08:13;17.10;57.90
66928;DHT22;59882;45.624;11.698;2023-03-23T10:10:47;17.20;58.00
66928;DHT22;59882;45.624;11.698;2023-03-23T10:16:19;17.30;56.60
66928;DHT22;59882;45.624;11.698;2023-03-23T10:21:51;17.50;56.00
66928;DHT22;59882;45.624;11.698;2023-03-23T10:24:21;17.50;55.90
66928;DHT22;59882;45.624;11.698;2023-03-23T10:29:53;17.60;55.60
66928;DHT22;59882;45.624;11.698;2023-03-23T10:32:40;17.70;54.20
66928;DHT22;59882;45.624;11.698;2023-03-23T10:35:14;17.60;53.30
66928;DHT22;59882;45.624;11.698;2023-03-23T10:37:49;17.70;53.90
66928;DHT22;59882;45.624;11.698;2023-03-23T10:40:19;17.70;53.20
66928;DHT22;59882;45.624;11.698;2023-03-23T10:42:46;17.80;54.20
66928;DHT22;59882;45.624;11.698;2023-03-23T10:45:15;17.90;53.50
66928;DHT22;59882;45.624;11.698;2023-03-23T10:47:47;17.90;53.70
66928;DHT22;59882;45.624;11.698;2023-03-23T10:50:17;18.10;54.70
66928;DHT22;59882;45.624;11.698;2023-03-23T10:52:48;18.20;53.20
66928;DHT22;59882;45.624;11.698;2023-03-23T10:55:18;18.30;52.00
66928;DHT22;59882;45.624;11.698;2023-03-23T10:57:59;18.40;53.80
66928;DHT22;59882;45.624;11.698;2023-03-23T11:00:27;18.50;53.80
66928;DHT22;59882;45.624;11.698;2023-03-23T11:05:41;18.60;52.50
66928;DHT22;59882;45.624;11.698;2023-03-23T11:08:16;18.70;52.10
66928;DHT22;59882;45.624;11.698;2023-03-23T11:10:49;18.80;52.80
66928;DHT22;59882;45.624;11.698;2023-03-23T11:13:17;18.90;54.00
66928;DHT22;59882;45.624;11.698;2023-03-23T11:15:45;19.10;53.70
66928;DHT22;59882;45.624;11.698;2023-03-23T11:18:46;19.20;53.20
66928;DHT22;59882;45.624;11.698;2023-03-23T11:21:13;19.40;51.30
66928;DHT22;59882;45.624;11.698;2023-03-23T11:23:42;19.60;50.50
66928;DHT22;59882;45.624;11.698;2023-03-23T11:26:21;19.70;49.30
66928;DHT22;59882;45.624;11.698;2023-03-23T11:31:34;19.70;47.10
66928;DHT22;59882;45.624;11.698;2023-03-23T11:34:04;19.70;47.10
66928;DHT22;59882;45.624;11.698;2023-03-23T11:36:36;19.70;46.00
66928;DHT22;59882;45.624;11.698;2023-03-23T11:41:44;19.50;47.70
66928;DHT22;59882;45.624;11.698;2023-03-23T11:44:11;19.50;47.80
66928;DHT22;59882;45.624;11.698;2023-03-23T11:46:39;19.50;49.30
66928;DHT22;59882;45.624;11.698;2023-03-23T11:49:25;19.50;49.00
66928;DHT22;59882;45.624;11.698;2023-03-23T11:52:05;19.60;49.60
66928;DHT22;59882;45.624;11.698;2023-03-23T11:54:40;19.80;49.90
66928;DHT22;59882;45.624;11.698;2023-03-23T11:57:11;20.00;47.90
66928;DHT22;59882;45.624;11.698;2023-03-23T11:59:39;20.20;48.30
66928;DHT22;59882;45.624;11.698;2023-03-23T12:08:10;20.40;44.90
66928;DHT22;59882;45.624;11.698;2023-03-23T12:10:41;20.40;46.20
66928;DHT22;59882;45.624;11.698;2023-03-23T12:13:47;20.40;46.90
66928;DHT22;59882;45.624;11.698;2023-03-23T12:19:30;20.60;45.50
66928;DHT22;59882;45.624;11.698;2023-03-23T12:33:09;21.10;45.00
66928;DHT22;59882;45.624;11.698;2023-03-23T12:35:44;21.40;46.80
66928;DHT22;59882;45.624;11.698;2023-03-23T12:41:31;22.00;45.50
66928;DHT22;59882;45.624;11.698;2023-03-23T12:44:12;22.90;44.50
66928;DHT22;59882;45.624;11.698;2023-03-23T12:54:50;28.20;36.30
66928;DHT22;59882;45.624;11.698;2023-03-23T12:57:24;29.50;31.50
66928;DHT22;59882;45.624;11.698;2023-03-23T13:05:39;32.20;28.70
66928;DHT22;59882;45.624;11.698;2023-03-23T13:08:09;33.00;28.40
66928;DHT22;59882;45.624;11.698;2023-03-23T13:10:43;33.50;28.60
66928;DHT22;59882;45.624;11.698;2023-03-23T13:13:25;34.00;26.30
66928;DHT22;59882;45.624;11.698;2023-03-23T13:18:47;34.40;25.40
66928;DHT22;59882;45.624;11.698;2023-03-23T13:21:25;34.50;25.60
66928;DHT22;59882;45.624;11.698;2023-03-23T13:24:17;34.70;26.20
66928;DHT22;59882;45.624;11.698;2023-03-23T13:26:41;35.10;24.30
66928;DHT22;59882;45.624;11.698;2023-03-23T13:29:20;35.40;23.70
66928;DHT22;59882;45.624;11.698;2023-03-23T13:31:49;35.50;26.10
66928;DHT22;59882;45.624;11.698;2023-03-23T13:34:24;35.70;23.80
66928;DHT22;59882;45.624;11.698;2023-03-23T13:37:05;35.90;23.00
66928;DHT22;59882;45.624;11.698;2023-03-23T13:39:52;36.00;23.70
66928;DHT22;59882;45.624;11.698;2023-03-23T13:42:23;36.20;24.50
66928;DHT22;59882;45.624;11.698;2023-03-23T14:05:40;34.90;23.30
66928;DHT22;59882;45.624;11.698;2023-03-23T14:10:50;35.00;23.50
66928;DHT22;59882;45.624;11.698;2023-03-23T14:16:42;35.10;24.70
66928;DHT22;59882;45.624;11.698;2023-03-23T14:19:27;34.80;25.10
66928;DHT22;59882;45.624;11.698;2023-03-23T14:21:59;34.50;25.20
66928;DHT22;59882;45.624;11.698;2023-03-23T14:24:29;34.50;24.90
66928;DHT22;59882;45.624;11.698;2023-03-23T14:27:12;34.60;25.10
66928;DHT22;59882;45.624;11.698;2023-03-23T14:29:39;34.70;25.90
66928;DHT22;59882;45.624;11.698;2023-03-23T14:32:19;34.80;25.10
66928;DHT22;59882;45.624;11.698;2023-03-23T14:34:47;34.60;24.90
66928;DHT22;59882;45.624;11.698;2023-03-23T14:37:15;34.30;25.50
66928;DHT22;59882;45.624;11.698;2023-03-23T14:39:44;33.90;25.70
66928;DHT22;59882;45.624;11.698;2023-03-23T14:42:13;33.30;26.20
66928;DHT22;59882;45.624;11.698;2023-03-23T14:44:42;32.70;26.90
66928;DHT22;59882;45.624;11.698;2023-03-23T14:47:27;32.30;27.20
66928;DHT22;59882;45.624;11.698;2023-03-23T14:49:56;32.30;27.60
66928;DHT22;59882;45.624;11.698;2023-03-23T14:52:25;32.50;27.80
66928;DHT22;59882;45.624;11.698;2023-03-23T14:54:51;32.70;27.60
66928;DHT22;59882;45.624;11.698;2023-03-23T14:57:26;32.90;27.40
66928;DHT22;59882;45.624;11.698;2023-03-23T14:59:53;33.00;27.30
66928;DHT22;59882;45.624;11.698;2023-03-23T15:02:26;33.10;26.90
66928;DHT22;59882;45.624;11.698;2023-03-23T15:04:59;33.20;26.80
66928;DHT22;59882;45.624;11.698;2023-03-23T15:07:33;33.10;26.40
66928;DHT22;59882;45.624;11.698;2023-03-23T15:09:59;33.00;27.10
66928;DHT22;59882;45.624;11.698;2023-03-23T15:12:28;32.90;27.10
66928;DHT22;59882;45.624;11.698;2023-03-23T15:15:01;32.70;26.90
66928;DHT22;59882;45.624;11.698;2023-03-23T15:17:32;32.50;27.60
66928;DHT22;59882;45.624;11.698;2023-03-23T15:20:09;32.40;27.40
66928;DHT22;59882;45.624;11.698;2023-03-23T15:22:35;32.00;28.30
66928;DHT22;59882;45.624;11.698;2023-03-23T15:27:39;31.80;28.10
66928;DHT22;59882;45.624;11.698;2023-03-23T15:32:40;31.60;28.10
66928;DHT22;59882;45.624;11.698;2023-03-23T15:35:22;31.50;28.60
66928;DHT22;59882;45.624;11.698;2023-03-23T15:38:17;31.40;28.80
66928;DHT22;59882;45.624;11.698;2023-03-23T15:40:45;31.30;29.20
66928;DHT22;59882;45.624;11.698;2023-03-23T15:43:35;31.30;29.30
66928;DHT22;59882;45.624;11.698;2023-03-23T15:48:47;31.20;29.30
66928;DHT22;59882;45.624;11.698;2023-03-23T15:51:14;31.20;29.20
66928;DHT22;59882;45.624;11.698;2023-03-23T15:53:40;31.10;29.40
66928;DHT22;59882;45.624;11.698;2023-03-23T15:56:08;30.90;29.40
66928;DHT22;59882;45.624;11.698;2023-03-23T15:58:36;30.80;29.70
66928;DHT22;59882;45.624;11.698;2023-03-23T16:01:06;30.70;29.60
66928;DHT22;59882;45.624;11.698;2023-03-23T16:03:38;30.60;29.60
66928;DHT22;59882;45.624;11.698;2023-03-23T16:06:12;30.60;30.10
66928;DHT22;59882;45.624;11.698;2023-03-23T16:08:38;30.50;30.00
66928;DHT22;59882;45.624;11.698;2023-03-23T16:11:08;30.40;29.80
66928;DHT22;59882;45.624;11.698;2023-03-23T16:13:34;30.20;29.90
66928;DHT22;59882;45.624;11.698;2023-03-23T16:16:00;30.00;30.20
66928;DHT22;59882;45.624;11.698;2023-03-23T16:18:27;29.70;30.30
66928;DHT22;59882;45.624;11.698;2023-03-23T16:20:52;29.60;31.50
66928;DHT22;59882;45.624;11.698;2023-03-23T16:23:18;29.40;31.70
66928;DHT22;59882;45.624;11.698;2023-03-23T16:25:44;29.20;31.80
66928;DHT22;59882;45.624;11.698;2023-03-23T16:28:11;28.90;32.00
66928;DHT22;59882;45.624;11.698;2023-03-23T16:30:38;28.60;32.40
66928;DHT22;59882;45.624;11.698;2023-03-23T16:33:04;28.40;33.10
66928;DHT22;59882;45.624;11.698;2023-03-23T16:35:30;28.20;34.20
66928;DHT22;59882;45.624;11.698;2023-03-23T16:37:56;27.90;35.00
66928;DHT22;59882;45.624;11.698;2023-03-23T16:40:23;27.70;35.30
66928;DHT22;59882;45.624;11.698;2023-03-23T16:42:49;27.30;36.20
66928;DHT22;59882;45.624;11.698;2023-03-23T16:45:16;26.90;36.80
66928;DHT22;59882;45.624;11.698;2023-03-23T16:47:42;26.60;36.90
66928;DHT22;59882;45.624;11.698;2023-03-23T16:50:11;26.40;37.70
66928;DHT22;59882;45.624;11.698;2023-03-23T16:52:39;26.00;38.20
66928;DHT22;59882;45.624;11.698;2023-03-23T16:55:05;25.70;37.70
66928;DHT22;59882;45.624;11.698;2023-03-23T16:57:32;25.30;38.80
66928;DHT22;59882;45.624;11.698;2023-03-23T17:00:08;24.90;39.80
66928;DHT22;59882;45.624;11.698;2023-03-23T17:02:36;24.50;40.90
66928;DHT22;59882;45.624;11.698;2023-03-23T17:05:02;24.30;41.70
66928;DHT22;59882;45.624;11.698;2023-03-23T17:07:28;23.90;41.90
66928;DHT22;59882;45.624;11.698;2023-03-23T17:09:54;23.60;43.00
66928;DHT22;59882;45.624;11.698;2023-03-23T17:12:20;23.30;43.70
66928;DHT22;59882;45.624;11.698;2023-03-23T17:14:46;23.10;43.80
66928;DHT22;59882;45.624;11.698;2023-03-23T17:17:11;22.90;45.00
66928;DHT22;59882;45.624;11.698;2023-03-23T17:19:37;22.60;45.30
66928;DHT22;59882;45.624;11.698;2023-03-23T17:22:03;22.40;44.70
66928;DHT22;59882;45.624;11.698;2023-03-23T17:24:29;22.20;46.40
66928;DHT22;59882;45.624;11.698;2023-03-23T17:26:55;22.00;47.40